Terminal Aerodrome Forecast
Issued by NWS Grand Forks, ND

Home | Current Version | Previous Version | Text Only | Print | Product List | Glossary On
Versions: 1 2 3 4 5 6 7 8 9 10 11 12 13 14 15 16
000
FTUS43 KFGF 220500
TAFGFK
TAF
KGFK 220520Z 2206/2306 16015G25KT P6SM SCT120
     FM221400 17017KT P6SM BKN120
     FM221800 18015KT P6SM VCSH BKN060=

USA.gov is the U.S. government's official web portal to all federal, state and local government web resources and services.